KMOR/MOR METAR and TAF weather

Enter ICAO airport designator
Station Type Date Time Source
KMOR METAR 2020/01/23 21:15 UTC NOAA

KMOR 232115Z AUTO 11005KT 10SM OVC100 11/M01 A3008 RMK A01


Station Type Date Time Source
KMOR Decoded METAR 2020/01/23 21:15 UTC NOAA

Station name not available
Jan 23, 2020 - 04:15 PM EST / 2020.01.23 2115 UTC
Wind: from the ESE (110 degrees) at 6 MPH (5 KT):0
Visibility: 10 mile(s):0
Sky conditions: overcast
Temperature: 51 F (11 C)
Dew Point: 30 F (-1 C)
Relative Humidity: 43%
Pressure (altimeter): 30.08 in. Hg (1018 hPa)
ob: KMOR 232115Z AUTO 11005KT 10SM OVC100 11/M01 A3008 RMK A01
cycle: 21

Station Type Date Time Source
KMOR TAF UTC NOAA

Error!

Example: see airport list